Rickenbacker International Airport
KLCK : now visible

Airfield :











YOU CAN JOIN US ON...

 
LOGIN :

Register | Disclaimer

   EN    FR    IT 

 









Legend :    VFR   Marginal VFR   IFR   Intensive IFR   Very Intensive IFR
Visi :
Ceiling :
>= 8 km
>= 3000ft
5 to 8 km
1000 to 3000 ft
1500m to 5 km
500 to 1000 ft
800 to 1500m
200 to 500 ft
< 800m
< 200 ft
Symbols :   Thunderstorms  Fog  Heavy snow  Heavy precipitations  Wind > 20 kt







- Airport Elevation : 744 ft


KLCK - Rickenbacker International

CURRENT METAR :
  • 152055Z AUTO 30012G19KT 10SM CLR 02/M08 A2986 RMK AO2 T00171077

EXPIRED METARs :
  • 152035Z AUTO 28015G20KT 10SM CLR 02/M08 A2986 RMK AO2 T00191077
  • 152015Z AUTO 30013G19KT 10SM CLR 02/M07 A2986 RMK AO2 T00231073
  • 151955Z AUTO 30015G20KT 10SM CLR 03/M07 A2986 RMK AO2 T00291066
  • 151935Z AUTO 30016G21KT 10SM CLR 04/M05 A2984 RMK AO2 T00371053
  • 151915Z AUTO 27013G21KT 10SM CLR 04/M05 A2983 RMK AO2 T00391050
  • 151855Z AUTO 28016G22KT 10SM CLR 04/M05 A2982 RMK AO2 T00391052
  • 151835Z AUTO 27017G22KT 10SM CLR 04/M06 A2981 RMK AO2 T00401058
  • 151815Z AUTO 28017G22KT 10SM CLR 05/M06 A2981 RMK AO2 T00451058

TAF KLCK
Valid from the 15 at 18:00 until the 16 at 18:00 UTC


151743Z 1518/1618 29015KT P6SM SCT025 BKN200
FM160000 31009KT P6SM BKN150
FM160900 01007KT P6SM FEW015 SCT150
KZID FIR / North America



MET'MAP, your aeronautical weather chart ! - Copyright ORBIFLY December 2007 - Disclaimer

ORBIFLY MET'MAP TEAM :

Programming & Development : Alexandra Zaïnal
Concept & Development : Baudouin d'Aumeries
Co-Development & Prog : Marc-Olivier Méhu
Technical & hardware support : Manuel Goepfert

Contact : metmap@orbifly.com




SOURCES & CREDITS :

   NOAA       Earth
Advisory